EZY49TQ EGKK-LPFR
Flight info
| Callsign | EZY49TQ |
|---|---|
| Flight time | N/A |
| Altitude | 37000 |
| Route | IMVUR N63 SAM M195 LORKU DCT POZOF DCT BALDA DCT ABUPI DCT ORVED DCT UPULO DCT ALAGU |
| Aircraft | A320/M-SDE3FGHIRWY/LB1 |
Departure
| Time | N/A |
|---|---|
| Airport | London Gatwick Airport (EGKK) |
Arrival
| Time | 2026-04-29 15:58 |
|---|---|
| Airport | Faro - Gago Coutinho International Airport (LPFR) |
| Time | Latitude | Longitude | Altitude | Speed | Heading |
|---|---|---|---|---|---|
| 2026-04-29 15:36 | 38.03874 | -7.78053 | 34562 ft | 346 kts | 313° |
| 2026-04-29 15:37 | 38.05970 | -7.79623 | 34328 ft | 362 kts | 331° |
| 2026-04-29 15:37 | 38.08484 | -7.80297 | 34104 ft | 377 kts | 346° |
| 2026-04-29 15:37 | 38.11137 | -7.80223 | 33855 ft | 394 kts | 5° |
| 2026-04-29 15:37 | 38.13696 | -7.78804 | 33580 ft | 413 kts | 31° |
| 2026-04-29 15:38 | 38.15698 | -7.76138 | 33308 ft | 425 kts | 57° |
| 2026-04-29 15:38 | 38.16776 | -7.72648 | 33032 ft | 426 kts | 83° |
| 2026-04-29 15:38 | 38.16743 | -7.68941 | 32762 ft | 416 kts | 109° |
| 2026-04-29 15:38 | 38.15659 | -7.65648 | 32496 ft | 397 kts | 134° |
| 2026-04-29 15:39 | 38.13825 | -7.63224 | 32239 ft | 373 kts | 156° |
| 2026-04-29 15:39 | 38.11560 | -7.61813 | 31894 ft | 362 kts | 175° |
| 2026-04-29 15:39 | 38.09057 | -7.61341 | 30948 ft | 370 kts | 186° |
| 2026-04-29 15:39 | 38.06458 | -7.61236 | 29979 ft | 379 kts | 189° |
| 2026-04-29 15:40 | 38.03783 | -7.61260 | 28843 ft | 388 kts | 190° |
| 2026-04-29 15:40 | 38.01070 | -7.61336 | 27846 ft | 388 kts | 190° |
| 2026-04-29 15:40 | 37.98395 | -7.61402 | 26935 ft | 381 kts | 190° |
| 2026-04-29 15:40 | 37.95768 | -7.61443 | 26022 ft | 375 kts | 189° |
| 2026-04-29 15:41 | 37.93217 | -7.61459 | 25149 ft | 370 kts | 189° |
| 2026-04-29 15:41 | 37.90636 | -7.61460 | 24290 ft | 365 kts | 189° |
| 2026-04-29 15:41 | 37.88109 | -7.61454 | 23456 ft | 361 kts | 189° |
| 2026-04-29 15:41 | 37.85614 | -7.61448 | 22496 ft | 356 kts | 189° |
| 2026-04-29 15:42 | 37.83153 | -7.61445 | 21618 ft | 351 kts | 188° |
| 2026-04-29 15:42 | 37.80724 | -7.61445 | 20782 ft | 346 kts | 188° |
| 2026-04-29 15:42 | 37.78336 | -7.61446 | 19971 ft | 341 kts | 188° |
| 2026-04-29 15:42 | 37.75980 | -7.61448 | 19196 ft | 336 kts | 188° |
| 2026-04-29 15:43 | 37.73660 | -7.61452 | 18455 ft | 332 kts | 188° |
| 2026-04-29 15:43 | 37.71390 | -7.61455 | 17657 ft | 327 kts | 187° |
| 2026-04-29 15:43 | 37.69130 | -7.61456 | 16838 ft | 323 kts | 187° |
| 2026-04-29 15:43 | 37.66882 | -7.61455 | 16319 ft | 311 kts | 187° |
| 2026-04-29 15:44 | 37.64762 | -7.61454 | 15964 ft | 309 kts | 187° |
| 2026-04-29 15:44 | 37.62620 | -7.61458 | 15600 ft | 306 kts | 187° |
| 2026-04-29 15:44 | 37.60498 | -7.61460 | 15245 ft | 304 kts | 187° |
| 2026-04-29 15:44 | 37.58359 | -7.61461 | 14884 ft | 302 kts | 187° |
| 2026-04-29 15:45 | 37.56262 | -7.61466 | 14526 ft | 301 kts | 186° |
| 2026-04-29 15:45 | 37.54213 | -7.61469 | 14183 ft | 299 kts | 186° |
| 2026-04-29 15:45 | 37.52134 | -7.61468 | 13825 ft | 298 kts | 186° |
| 2026-04-29 15:45 | 37.50062 | -7.61469 | 13447 ft | 297 kts | 186° |
| 2026-04-29 15:46 | 37.47978 | -7.61470 | 13083 ft | 295 kts | 186° |
| 2026-04-29 15:46 | 37.45959 | -7.61472 | 12727 ft | 293 kts | 186° |
| 2026-04-29 15:46 | 37.43931 | -7.61472 | 12376 ft | 290 kts | 186° |
| 2026-04-29 15:46 | 37.41918 | -7.61471 | 12013 ft | 289 kts | 186° |
| 2026-04-29 15:47 | 37.39912 | -7.61474 | 11643 ft | 288 kts | 185° |
| 2026-04-29 15:47 | 37.37908 | -7.61477 | 11270 ft | 286 kts | 185° |
| 2026-04-29 15:47 | 37.35918 | -7.61478 | 10893 ft | 285 kts | 185° |
| 2026-04-29 15:47 | 37.33935 | -7.61479 | 10515 ft | 285 kts | 185° |
| 2026-04-29 15:48 | 37.31965 | -7.61478 | 10209 ft | 281 kts | 185° |
| 2026-04-29 15:48 | 37.30010 | -7.61478 | 9859 ft | 280 kts | 185° |
| 2026-04-29 15:48 | 37.28050 | -7.61476 | 9471 ft | 280 kts | 185° |
| 2026-04-29 15:48 | 37.26100 | -7.61475 | 9062 ft | 279 kts | 184° |
| 2026-04-29 15:49 | 37.24160 | -7.61476 | 8627 ft | 279 kts | 184° |
| 2026-04-29 15:49 | 37.22231 | -7.61478 | 8228 ft | 279 kts | 184° |
| 2026-04-29 15:49 | 37.20318 | -7.61478 | 7873 ft | 276 kts | 184° |
| 2026-04-29 15:49 | 37.18397 | -7.61478 | 7516 ft | 274 kts | 184° |
| 2026-04-29 15:50 | 37.16502 | -7.61477 | 7129 ft | 273 kts | 184° |
| 2026-04-29 15:50 | 37.14605 | -7.61479 | 6749 ft | 272 kts | 184° |
| 2026-04-29 15:50 | 37.12715 | -7.61482 | 6369 ft | 269 kts | 184° |
| 2026-04-29 15:50 | 37.10847 | -7.61484 | 5729 ft | 268 kts | 184° |
| 2026-04-29 15:51 | 37.09000 | -7.61516 | 5203 ft | 261 kts | 190° |
| 2026-04-29 15:51 | 37.07323 | -7.62012 | 5089 ft | 234 kts | 205° |
| 2026-04-29 15:51 | 37.06380 | -7.62524 | 5048 ft | 220 kts | 207° |
| 2026-04-29 15:51 | 37.05018 | -7.63274 | 4967 ft | 211 kts | 207° |
| 2026-04-29 15:52 | 37.03676 | -7.64012 | 4880 ft | 210 kts | 208° |
| 2026-04-29 15:52 | 37.02335 | -7.64750 | 4780 ft | 211 kts | 208° |
| 2026-04-29 15:52 | 37.00993 | -7.65490 | 4678 ft | 211 kts | 208° |
| 2026-04-29 15:52 | 36.99652 | -7.66230 | 4588 ft | 211 kts | 208° |
| 2026-04-29 15:53 | 36.98355 | -7.67058 | 4486 ft | 206 kts | 224° |
| 2026-04-29 15:53 | 36.97604 | -7.68508 | 4354 ft | 201 kts | 258° |
| 2026-04-29 15:53 | 36.97675 | -7.70211 | 4096 ft | 199 kts | 281° |
| 2026-04-29 15:53 | 36.97918 | -7.71913 | 3833 ft | 200 kts | 278° |
| 2026-04-29 15:54 | 36.98156 | -7.73626 | 3566 ft | 199 kts | 279° |
| 2026-04-29 15:54 | 36.98399 | -7.75327 | 3301 ft | 198 kts | 279° |
| 2026-04-29 15:54 | 36.98642 | -7.77021 | 3040 ft | 198 kts | 279° |
| 2026-04-29 15:54 | 36.98886 | -7.78715 | 2772 ft | 198 kts | 279° |
| 2026-04-29 15:55 | 36.99130 | -7.80412 | 2506 ft | 198 kts | 278° |
| 2026-04-29 15:55 | 36.99372 | -7.82094 | 2241 ft | 196 kts | 278° |
| 2026-04-29 15:55 | 36.99610 | -7.83758 | 1972 ft | 191 kts | 279° |
| 2026-04-29 15:55 | 36.99838 | -7.85347 | 1722 ft | 183 kts | 278° |
| 2026-04-29 15:56 | 37.00058 | -7.86880 | 1497 ft | 172 kts | 278° |
| 2026-04-29 15:56 | 37.00259 | -7.88280 | 1274 ft | 156 kts | 277° |
| 2026-04-29 15:56 | 37.00441 | -7.89552 | 1064 ft | 140 kts | 277° |
| 2026-04-29 15:56 | 37.00606 | -7.90703 | 886 ft | 131 kts | 276° |
| 2026-04-29 15:57 | 37.00763 | -7.91808 | 709 ft | 128 kts | 276° |
| 2026-04-29 15:57 | 37.00919 | -7.92906 | 543 ft | 128 kts | 274° |
| 2026-04-29 15:57 | 37.01072 | -7.93984 | 373 ft | 126 kts | 274° |
| 2026-04-29 15:57 | 37.01225 | -7.95062 | 209 ft | 127 kts | 276° |
| 2026-04-29 15:58 | 37.01380 | -7.96147 | 40 ft | 126 kts | 276° |
| 2026-04-29 15:58 | 37.01510 | -7.97072 | 20 ft | 84 kts | 280° |
| 2026-04-29 15:58 | 37.01585 | -7.97576 | 19 ft | 34 kts | 280° |
| 2026-04-29 15:58 | 37.01613 | -7.97785 | 19 ft | 22 kts | 280° |
| 2026-04-29 15:59 | 37.01648 | -7.97964 | 23 ft | 20 kts | 288° |
| 2026-04-29 15:59 | 37.01709 | -7.98122 | 22 ft | 21 kts | 305° |
| 2026-04-29 15:59 | 37.01779 | -7.98223 | 21 ft | 15 kts | 323° |
| 2026-04-29 15:59 | 37.01849 | -7.98175 | 21 ft | 13 kts | 80° |
| 2026-04-29 16:00 | 37.01838 | -7.98066 | 20 ft | 12 kts | 99° |
| 2026-04-29 16:00 | 37.01824 | -7.97964 | 20 ft | 12 kts | 100° |
| 2026-04-29 16:00 | 37.01810 | -7.97868 | 20 ft | 11 kts | 100° |
| 2026-04-29 16:00 | 37.01797 | -7.97777 | 22 ft | 10 kts | 100° |
| 2026-04-29 16:01 | 37.01785 | -7.97693 | 23 ft | 10 kts | 100° |
| 2026-04-29 16:01 | 37.01774 | -7.97615 | 20 ft | 9 kts | 100° |
| 2026-04-29 16:01 | 37.01764 | -7.97542 | 20 ft | 8 kts | 100° |
| 2026-04-29 16:01 | 37.01755 | -7.97475 | 20 ft | 7 kts | 99° |
| 2026-04-29 16:02 | 37.01747 | -7.97415 | 20 ft | 7 kts | 100° |
| 2026-04-29 16:02 | 37.01739 | -7.97361 | 20 ft | 6 kts | 100° |
| 2026-04-29 16:02 | 37.01730 | -7.97302 | 20 ft | 8 kts | 100° |
| 2026-04-29 16:02 | 37.01720 | -7.97234 | 20 ft | 8 kts | 100° |
| 2026-04-29 16:03 | 37.01710 | -7.97162 | 22 ft | 9 kts | 100° |
| 2026-04-29 16:03 | 37.01700 | -7.97098 | 20 ft | 7 kts | 100° |
| 2026-04-29 16:03 | 37.01691 | -7.97034 | 20 ft | 8 kts | 101° |
| 2026-04-29 16:03 | 37.01686 | -7.97005 | 21 ft | 0 kts | 100° |
| 2026-04-29 16:05 | 37.01686 | -7.96999 | 23 ft | 2 kts | 100° |
| 2026-04-29 16:05 | 37.01682 | -7.96975 | 21 ft | 4 kts | 100° |
| 2026-04-29 16:05 | 37.01676 | -7.96932 | 21 ft | 6 kts | 101° |
| 2026-04-29 16:06 | 37.01667 | -7.96873 | 20 ft | 8 kts | 100° |
| 2026-04-29 16:06 | 37.01657 | -7.96799 | 23 ft | 9 kts | 99° |
| 2026-04-29 16:06 | 37.01645 | -7.96714 | 20 ft | 11 kts | 100° |
| 2026-04-29 16:06 | 37.01632 | -7.96619 | 20 ft | 11 kts | 99° |
| 2026-04-29 16:07 | 37.01660 | -7.96542 | 20 ft | 11 kts | 29° |
| 2026-04-29 16:07 | 37.01733 | -7.96521 | 22 ft | 11 kts | 11° |
| 2026-04-29 16:07 | 37.01790 | -7.96467 | 20 ft | 10 kts | 20° |
| 2026-04-29 16:07 | 37.01850 | -7.96456 | 20 ft | 5 kts | 10° |
| 2026-04-29 16:08 | 37.01864 | -7.96452 | 20 ft | 0 kts | 10° |
| 2026-04-29 16:08 | 37.01865 | -7.96453 | 20 ft | 0 kts | 10° |